Home PIREPS Pireps

Flight BEL2810

  • Submitted By: Vincent Fourni
  • Departure Airport: Praha - Ruzyne (LKPR)
  • Arrival Airport: Bruxelles National (EBBR)
  • Aircraft: BAE AVRO RJ1 (OO-DWC)
  • Flight Time: 01.21
  • Date Submitted: 16/09/2016
  • Status: Accepted
Flight Details
Gross Revenue:
(78 load / € 94.00 per unit
€ 7,332.00
Fuel Cost:
(3665 fuel used @ 5.1 / unit)
€ 18,691.50

Additional Log Information:

View Log

Aircraft Used in flight is PMDG 737-800NGX Brussels Airlines Winglets
21:02 Brakes are On
21:11 Brakes are Released
21:21 You Took off @ 179 Knots and Flaps at Position 3
Departure Weather
LKPR 161900Z 25007KT 9999 -SHRA NSC 18/17 Q1012 BECMG FM1945 NSWrn
21:21 Landing Gear Up @ 162 Knots and 1840 Feet
22:08 Above FL100 you need to switch of the landing lights
22:08 Above FL100 you need to switch of the landing lights
22:08 Overspeed
22:08 Recovered from Overspeed
22:12 Below 10000 feet you are not allowed to go over 250 knots
22:19 Landing Gear Down @ 188 Knots and 1950 Feet
22:21 You Landed @ 137 Knots and with -200 Vertical Speed
Arrival Weather
EBBR 161950Z 17007KT 9999 BKN039 18/13 Q1012 TEMPO 4000 SHRArn
22:22 Paused
22:22 Unpaused
22:23 Paused
22:24 Unpaused
22:24 Paused
22:28 Unpaused
22:28 Paused
22:28 Brakes are On
22:28 Unpaused
22:30 Brussels Bel-Track1.0.1.2

Route Map

Corporate About Us Our Team Vacancies Information Fleet Route Network Rules and Regulations Operations Flight Schedules Event Center Tours Partners IVAO Vatsim Acars dev FSCB

fb Users Online No pilots online!
0 Pilot(s) and 138 Guest(s) Online
CMS by phpVMS - Design by Crazycreatives.com - Copyright © 2020 - Brussels Airlines Virtual